sensor_id;sensor_type;location;lat;lon;timestamp;temperature;humidity
51383;DHT22;37475;43.358;1.248;2022-09-09T00:01:26;18.10;78.30
51383;DHT22;37475;43.358;1.248;2022-09-09T00:07:32;18.30;77.70
51383;DHT22;37475;43.358;1.248;2022-09-09T00:16:04;18.20;80.00
51383;DHT22;37475;43.358;1.248;2022-09-09T00:21:17;18.20;79.80
51383;DHT22;37475;43.358;1.248;2022-09-09T00:23:48;18.30;79.50
51383;DHT22;37475;43.358;1.248;2022-09-09T00:31:47;18.60;77.90
51383;DHT22;37475;43.358;1.248;2022-09-09T00:34:14;18.60;78.00
51383;DHT22;37475;43.358;1.248;2022-09-09T00:36:43;18.60;79.40
51383;DHT22;37475;43.358;1.248;2022-09-09T00:39:31;18.60;78.50
51383;DHT22;37475;43.358;1.248;2022-09-09T00:42:23;18.60;79.10
51383;DHT22;37475;43.358;1.248;2022-09-09T00:47:40;18.60;78.70
51383;DHT22;37475;43.358;1.248;2022-09-09T00:50:47;18.40;79.10
51383;DHT22;37475;43.358;1.248;2022-09-09T00:56:25;18.60;78.90
51383;DHT22;37475;43.358;1.248;2022-09-09T01:01:50;18.60;78.60
51383;DHT22;37475;43.358;1.248;2022-09-09T01:04:26;18.60;79.10
51383;DHT22;37475;43.358;1.248;2022-09-09T01:07:21;18.60;79.10
51383;DHT22;37475;43.358;1.248;2022-09-09T01:10:07;18.60;79.30
51383;DHT22;37475;43.358;1.248;2022-09-09T01:12:42;18.60;80.00
51383;DHT22;37475;43.358;1.248;2022-09-09T01:15:10;18.50;79.80
51383;DHT22;37475;43.358;1.248;2022-09-09T01:27:06;18.80;78.90
51383;DHT22;37475;43.358;1.248;2022-09-09T01:29:33;18.60;79.30
51383;DHT22;37475;43.358;1.248;2022-09-09T01:35:04;18.60;79.30
51383;DHT22;37475;43.358;1.248;2022-09-09T01:37:32;18.60;79.30
51383;DHT22;37475;43.358;1.248;2022-09-09T01:39:58;18.70;78.90
51383;DHT22;37475;43.358;1.248;2022-09-09T01:42:24;18.80;79.10
51383;DHT22;37475;43.358;1.248;2022-09-09T01:44:50;18.60;79.30
51383;DHT22;37475;43.358;1.248;2022-09-09T01:47:16;18.50;79.90
51383;DHT22;37475;43.358;1.248;2022-09-09T01:49:42;18.50;80.20
51383;DHT22;37475;43.358;1.248;2022-09-09T01:52:08;18.50;80.20
51383;DHT22;37475;43.358;1.248;2022-09-09T01:54:35;18.60;79.90
51383;DHT22;37475;43.358;1.248;2022-09-09T02:02:39;18.30;80.90
51383;DHT22;37475;43.358;1.248;2022-09-09T02:05:14;18.40;80.20
51383;DHT22;37475;43.358;1.248;2022-09-09T02:07:48;18.30;80.30
51383;DHT22;37475;43.358;1.248;2022-09-09T02:10:20;18.30;80.70
51383;DHT22;37475;43.358;1.248;2022-09-09T02:12:51;18.30;80.70
51383;DHT22;37475;43.358;1.248;2022-09-09T02:17:56;18.50;79.90
51383;DHT22;37475;43.358;1.248;2022-09-09T02:20:24;18.50;80.00
51383;DHT22;37475;43.358;1.248;2022-09-09T02:22:53;18.50;79.90
51383;DHT22;37475;43.358;1.248;2022-09-09T02:25:22;18.60;79.30
51383;DHT22;37475;43.358;1.248;2022-09-09T02:27:50;18.60;79.70
51383;DHT22;37475;43.358;1.248;2022-09-09T02:30:18;18.70;79.00
51383;DHT22;37475;43.358;1.248;2022-09-09T02:32:46;18.80;79.10
51383;DHT22;37475;43.358;1.248;2022-09-09T02:35:19;18.80;79.10
51383;DHT22;37475;43.358;1.248;2022-09-09T02:37:51;18.80;79.20
51383;DHT22;37475;43.358;1.248;2022-09-09T02:40:19;18.70;78.90
51383;DHT22;37475;43.358;1.248;2022-09-09T02:42:47;18.80;78.50
51383;DHT22;37475;43.358;1.248;2022-09-09T02:45:19;18.90;78.30
51383;DHT22;37475;43.358;1.248;2022-09-09T02:48:07;18.90;78.10
51383;DHT22;37475;43.358;1.248;2022-09-09T02:51:14;19.00;78.20
51383;DHT22;37475;43.358;1.248;2022-09-09T02:56:53;19.00;78.00
51383;DHT22;37475;43.358;1.248;2022-09-09T02:59:20;18.60;79.00
51383;DHT22;37475;43.358;1.248;2022-09-09T03:01:47;18.80;78.50
51383;DHT22;37475;43.358;1.248;2022-09-09T03:04:13;18.80;78.50
51383;DHT22;37475;43.358;1.248;2022-09-09T03:06:39;18.90;78.20
51383;DHT22;37475;43.358;1.248;2022-09-09T03:09:05;19.00;78.50
51383;DHT22;37475;43.358;1.248;2022-09-09T03:11:31;18.80;78.70
51383;DHT22;37475;43.358;1.248;2022-09-09T03:13:57;18.80;79.00
51383;DHT22;37475;43.358;1.248;2022-09-09T03:16:23;18.70;79.30
51383;DHT22;37475;43.358;1.248;2022-09-09T03:18:49;18.70;78.90
51383;DHT22;37475;43.358;1.248;2022-09-09T03:21:15;18.80;78.70
51383;DHT22;37475;43.358;1.248;2022-09-09T03:23:41;18.70;78.90
51383;DHT22;37475;43.358;1.248;2022-09-09T03:26:07;18.60;79.30
51383;DHT22;37475;43.358;1.248;2022-09-09T03:28:33;18.60;79.00
51383;DHT22;37475;43.358;1.248;2022-09-09T03:31:04;18.60;78.80
51383;DHT22;37475;43.358;1.248;2022-09-09T03:33:31;18.60;79.60
51383;DHT22;37475;43.358;1.248;2022-09-09T03:35:57;18.40;81.20
51383;DHT22;37475;43.358;1.248;2022-09-09T03:38:24;18.30;81.70
51383;DHT22;37475;43.358;1.248;2022-09-09T03:40:54;18.20;81.80
51383;DHT22;37475;43.358;1.248;2022-09-09T03:43:23;18.20;82.10
51383;DHT22;37475;43.358;1.248;2022-09-09T03:45:49;18.30;82.00
51383;DHT22;37475;43.358;1.248;2022-09-09T03:48:16;18.40;82.20
51383;DHT22;37475;43.358;1.248;2022-09-09T03:50:51;18.40;82.00
51383;DHT22;37475;43.358;1.248;2022-09-09T03:53:19;18.50;81.80
51383;DHT22;37475;43.358;1.248;2022-09-09T03:55:48;18.50;81.70
51383;DHT22;37475;43.358;1.248;2022-09-09T03:58:16;18.40;81.80
51383;DHT22;37475;43.358;1.248;2022-09-09T04:00:54;18.40;81.70
51383;DHT22;37475;43.358;1.248;2022-09-09T04:03:21;18.60;81.00
51383;DHT22;37475;43.358;1.248;2022-09-09T04:05:52;18.60;80.70
51383;DHT22;37475;43.358;1.248;2022-09-09T04:08:20;18.60;81.00
51383;DHT22;37475;43.358;1.248;2022-09-09T04:10:49;18.50;81.10
51383;DHT22;37475;43.358;1.248;2022-09-09T04:13:16;18.60;80.50
51383;DHT22;37475;43.358;1.248;2022-09-09T04:15:44;18.70;80.40
51383;DHT22;37475;43.358;1.248;2022-09-09T04:18:16;18.80;80.30
51383;DHT22;37475;43.358;1.248;2022-09-09T04:20:42;18.70;80.50
51383;DHT22;37475;43.358;1.248;2022-09-09T04:23:09;18.60;80.60
51383;DHT22;37475;43.358;1.248;2022-09-09T04:25:34;18.60;81.00
51383;DHT22;37475;43.358;1.248;2022-09-09T04:28:00;18.60;81.00
51383;DHT22;37475;43.358;1.248;2022-09-09T04:30:27;18.70;81.00
51383;DHT22;37475;43.358;1.248;2022-09-09T04:32:53;18.70;80.90
51383;DHT22;37475;43.358;1.248;2022-09-09T04:35:19;18.60;81.20
51383;DHT22;37475;43.358;1.248;2022-09-09T04:37:45;18.50;81.30
51383;DHT22;37475;43.358;1.248;2022-09-09T04:40:11;18.60;81.10
51383;DHT22;37475;43.358;1.248;2022-09-09T04:42:38;18.60;81.00
51383;DHT22;37475;43.358;1.248;2022-09-09T04:45:05;18.60;81.10
51383;DHT22;37475;43.358;1.248;2022-09-09T04:47:36;18.60;80.90
51383;DHT22;37475;43.358;1.248;2022-09-09T04:50:02;18.60;81.10
51383;DHT22;37475;43.358;1.248;2022-09-09T04:52:28;18.60;81.20
51383;DHT22;37475;43.358;1.248;2022-09-09T04:54:54;18.60;81.40
51383;DHT22;37475;43.358;1.248;2022-09-09T04:57:20;18.60;81.30
51383;DHT22;37475;43.358;1.248;2022-09-09T04:59:46;18.70;81.10
51383;DHT22;37475;43.358;1.248;2022-09-09T05:02:12;18.70;80.90
51383;DHT22;37475;43.358;1.248;2022-09-09T05:04:37;18.90;80.60
51383;DHT22;37475;43.358;1.248;2022-09-09T05:07:03;18.90;80.60
51383;DHT22;37475;43.358;1.248;2022-09-09T05:09:29;19.00;80.30
51383;DHT22;37475;43.358;1.248;2022-09-09T05:11:55;18.90;80.80
51383;DHT22;37475;43.358;1.248;2022-09-09T05:14:21;18.90;80.90
51383;DHT22;37475;43.358;1.248;2022-09-09T05:16:48;19.00;80.50
51383;DHT22;37475;43.358;1.248;2022-09-09T05:19:15;19.00;81.20
51383;DHT22;37475;43.358;1.248;2022-09-09T05:21:44;19.00;81.30
51383;DHT22;37475;43.358;1.248;2022-09-09T05:24:10;19.10;82.50
51383;DHT22;37475;43.358;1.248;2022-09-09T05:26:36;18.90;82.80
51383;DHT22;37475;43.358;1.248;2022-09-09T05:29:02;18.70;83.40
51383;DHT22;37475;43.358;1.248;2022-09-09T05:31:30;18.50;84.60
51383;DHT22;37475;43.358;1.248;2022-09-09T05:33:56;18.40;85.60
51383;DHT22;37475;43.358;1.248;2022-09-09T05:36:22;18.30;86.60
51383;DHT22;37475;43.358;1.248;2022-09-09T05:38:48;18.40;86.20
51383;DHT22;37475;43.358;1.248;2022-09-09T05:41:16;18.50;87.60
51383;DHT22;37475;43.358;1.248;2022-09-09T05:43:43;18.40;87.90
51383;DHT22;37475;43.358;1.248;2022-09-09T05:46:18;18.50;87.20
51383;DHT22;37475;43.358;1.248;2022-09-09T05:48:47;18.60;86.60
51383;DHT22;37475;43.358;1.248;2022-09-09T05:51:20;18.50;88.10
51383;DHT22;37475;43.358;1.248;2022-09-09T05:53:50;18.60;87.90
51383;DHT22;37475;43.358;1.248;2022-09-09T05:56:23;18.60;87.20
51383;DHT22;37475;43.358;1.248;2022-09-09T05:58:54;18.60;86.80
51383;DHT22;37475;43.358;1.248;2022-09-09T06:01:26;18.70;86.50
51383;DHT22;37475;43.358;1.248;2022-09-09T06:03:56;18.70;87.10
51383;DHT22;37475;43.358;1.248;2022-09-09T06:06:25;18.60;87.80
51383;DHT22;37475;43.358;1.248;2022-09-09T06:08:54;18.50;88.30
51383;DHT22;37475;43.358;1.248;2022-09-09T06:11:25;18.50;88.70
51383;DHT22;37475;43.358;1.248;2022-09-09T06:13:52;18.60;88.70
51383;DHT22;37475;43.358;1.248;2022-09-09T06:16:22;18.60;88.20
51383;DHT22;37475;43.358;1.248;2022-09-09T06:18:49;18.70;87.80
51383;DHT22;37475;43.358;1.248;2022-09-09T06:21:18;18.80;87.50
51383;DHT22;37475;43.358;1.248;2022-09-09T06:23:45;19.00;87.20
51383;DHT22;37475;43.358;1.248;2022-09-09T06:26:13;19.10;86.80
51383;DHT22;37475;43.358;1.248;2022-09-09T06:28:42;19.20;87.10
51383;DHT22;37475;43.358;1.248;2022-09-09T06:31:11;19.10;86.10
51383;DHT22;37475;43.358;1.248;2022-09-09T06:33:40;19.30;85.50
51383;DHT22;37475;43.358;1.248;2022-09-09T06:36:34;19.20;86.50
51383;DHT22;37475;43.358;1.248;2022-09-09T06:39:02;19.10;87.00
51383;DHT22;37475;43.358;1.248;2022-09-09T06:41:30;19.30;86.50
51383;DHT22;37475;43.358;1.248;2022-09-09T06:43:57;19.20;86.10
51383;DHT22;37475;43.358;1.248;2022-09-09T06:46:28;19.20;86.30
51383;DHT22;37475;43.358;1.248;2022-09-09T06:48:56;19.30;86.00
51383;DHT22;37475;43.358;1.248;2022-09-09T06:51:26;19.40;85.40
51383;DHT22;37475;43.358;1.248;2022-09-09T06:53:55;19.50;85.20
51383;DHT22;37475;43.358;1.248;2022-09-09T06:58:59;19.60;84.20
51383;DHT22;37475;43.358;1.248;2022-09-09T07:01:31;19.60;83.80
51383;DHT22;37475;43.358;1.248;2022-09-09T07:04:00;19.80;83.60
51383;DHT22;37475;43.358;1.248;2022-09-09T07:06:28;19.80;83.20
51383;DHT22;37475;43.358;1.248;2022-09-09T07:09:00;19.70;84.00
51383;DHT22;37475;43.358;1.248;2022-09-09T07:11:39;19.70;83.80
51383;DHT22;37475;43.358;1.248;2022-09-09T07:14:10;19.60;84.30
51383;DHT22;37475;43.358;1.248;2022-09-09T07:16:43;19.70;84.20
51383;DHT22;37475;43.358;1.248;2022-09-09T07:19:10;19.80;83.60
51383;DHT22;37475;43.358;1.248;2022-09-09T07:21:36;19.90;83.20
51383;DHT22;37475;43.358;1.248;2022-09-09T07:24:02;19.80;82.60
51383;DHT22;37475;43.358;1.248;2022-09-09T07:26:32;20.00;82.80
51383;DHT22;37475;43.358;1.248;2022-09-09T07:28:58;20.10;82.00
51383;DHT22;37475;43.358;1.248;2022-09-09T07:31:27;20.10;81.40
51383;DHT22;37475;43.358;1.248;2022-09-09T07:33:55;20.20;81.20
51383;DHT22;37475;43.358;1.248;2022-09-09T07:36:30;20.50;81.30
51383;DHT22;37475;43.358;1.248;2022-09-09T07:39:04;20.70;80.70
51383;DHT22;37475;43.358;1.248;2022-09-09T07:41:35;20.50;80.90
51383;DHT22;37475;43.358;1.248;2022-09-09T07:44:08;20.60;80.50
51383;DHT22;37475;43.358;1.248;2022-09-09T07:46:36;20.80;79.20
51383;DHT22;37475;43.358;1.248;2022-09-09T07:49:05;21.00;78.60
51383;DHT22;37475;43.358;1.248;2022-09-09T07:51:35;21.10;78.40
51383;DHT22;37475;43.358;1.248;2022-09-09T07:54:06;21.00;76.70
51383;DHT22;37475;43.358;1.248;2022-09-09T07:56:35;21.10;77.20
51383;DHT22;37475;43.358;1.248;2022-09-09T07:59:03;21.10;78.00
51383;DHT22;37475;43.358;1.248;2022-09-09T08:01:37;21.10;77.50
51383;DHT22;37475;43.358;1.248;2022-09-09T08:04:10;21.00;78.10
51383;DHT22;37475;43.358;1.248;2022-09-09T08:06:49;21.00;78.40
51383;DHT22;37475;43.358;1.248;2022-09-09T08:09:19;21.00;77.90
51383;DHT22;37475;43.358;1.248;2022-09-09T08:11:45;21.10;77.50
51383;DHT22;37475;43.358;1.248;2022-09-09T08:14:11;21.10;77.40
51383;DHT22;37475;43.358;1.248;2022-09-09T08:16:43;21.10;76.80
51383;DHT22;37475;43.358;1.248;2022-09-09T08:19:11;21.10;76.90
51383;DHT22;37475;43.358;1.248;2022-09-09T08:21:39;21.10;76.90
51383;DHT22;37475;43.358;1.248;2022-09-09T08:24:06;20.80;76.70
51383;DHT22;37475;43.358;1.248;2022-09-09T08:26:41;20.70;78.20
51383;DHT22;37475;43.358;1.248;2022-09-09T08:29:09;20.80;78.60
51383;DHT22;37475;43.358;1.248;2022-09-09T08:31:42;20.90;77.20
51383;DHT22;37475;43.358;1.248;2022-09-09T08:34:10;21.00;76.80
51383;DHT22;37475;43.358;1.248;2022-09-09T08:36:41;21.10;76.80
51383;DHT22;37475;43.358;1.248;2022-09-09T08:39:10;21.20;76.30
51383;DHT22;37475;43.358;1.248;2022-09-09T08:48:02;21.10;77.00
51383;DHT22;37475;43.358;1.248;2022-09-09T08:50:36;21.30;76.80
51383;DHT22;37475;43.358;1.248;2022-09-09T08:53:21;21.30;77.20
51383;DHT22;37475;43.358;1.248;2022-09-09T08:55:58;21.40;76.80
51383;DHT22;37475;43.358;1.248;2022-09-09T08:58:30;21.30;77.30
51383;DHT22;37475;43.358;1.248;2022-09-09T09:01:30;21.10;77.40
51383;DHT22;37475;43.358;1.248;2022-09-09T09:07:32;21.00;77.00
51383;DHT22;37475;43.358;1.248;2022-09-09T09:13:20;21.10;77.70
51383;DHT22;37475;43.358;1.248;2022-09-09T09:15:57;20.90;77.90
51383;DHT22;37475;43.358;1.248;2022-09-09T09:18:28;21.00;78.10
51383;DHT22;37475;43.358;1.248;2022-09-09T09:23:43;21.10;78.00
51383;DHT22;37475;43.358;1.248;2022-09-09T09:26:13;21.20;77.10
51383;DHT22;37475;43.358;1.248;2022-09-09T09:28:39;21.30;77.00
51383;DHT22;37475;43.358;1.248;2022-09-09T09:31:06;21.00;77.90
51383;DHT22;37475;43.358;1.248;2022-09-09T09:36:08;21.00;77.80
51383;DHT22;37475;43.358;1.248;2022-09-09T09:38:35;20.60;79.00
51383;DHT22;37475;43.358;1.248;2022-09-09T09:41:02;20.70;79.20
51383;DHT22;37475;43.358;1.248;2022-09-09T09:43:34;20.80;78.60
51383;DHT22;37475;43.358;1.248;2022-09-09T09:46:03;20.60;78.40
51383;DHT22;37475;43.358;1.248;2022-09-09T09:48:29;20.60;78.50
51383;DHT22;37475;43.358;1.248;2022-09-09T09:51:16;20.50;78.30
51383;DHT22;37475;43.358;1.248;2022-09-09T09:53:44;20.20;78.50
51383;DHT22;37475;43.358;1.248;2022-09-09T09:56:13;20.30;78.50
51383;DHT22;37475;43.358;1.248;2022-09-09T09:58:50;20.50;78.20
51383;DHT22;37475;43.358;1.248;2022-09-09T10:01:30;20.10;77.80
51383;DHT22;37475;43.358;1.248;2022-09-09T10:04:18;19.60;79.00
51383;DHT22;37475;43.358;1.248;2022-09-09T10:06:46;19.80;79.30
51383;DHT22;37475;43.358;1.248;2022-09-09T10:09:23;19.30;80.10
51383;DHT22;37475;43.358;1.248;2022-09-09T10:14:55;19.40;80.90
51383;DHT22;37475;43.358;1.248;2022-09-09T10:22:51;19.10;82.30
51383;DHT22;37475;43.358;1.248;2022-09-09T10:35:05;18.40;86.40
51383;DHT22;37475;43.358;1.248;2022-09-09T10:52:15;17.00;89.90
51383;DHT22;37475;43.358;1.248;2022-09-09T10:55:13;17.10;90.10
51383;DHT22;37475;43.358;1.248;2022-09-09T11:00:22;16.90;90.00
51383;DHT22;37475;43.358;1.248;2022-09-09T11:05:42;16.90;89.90
51383;DHT22;37475;43.358;1.248;2022-09-09T11:08:11;16.80;89.40
51383;DHT22;37475;43.358;1.248;2022-09-09T11:21:47;17.00;89.60
51383;DHT22;37475;43.358;1.248;2022-09-09T11:24:44;17.10;89.60
51383;DHT22;37475;43.358;1.248;2022-09-09T11:27:20;17.30;89.00
51383;DHT22;37475;43.358;1.248;2022-09-09T11:30:18;17.40;88.60
51383;DHT22;37475;43.358;1.248;2022-09-09T11:35:42;17.60;88.00
51383;DHT22;37475;43.358;1.248;2022-09-09T11:38:45;17.80;87.50
51383;DHT22;37475;43.358;1.248;2022-09-09T11:41:19;18.10;87.20
51383;DHT22;37475;43.358;1.248;2022-09-09T11:43:51;18.10;86.00
51383;DHT22;37475;43.358;1.248;2022-09-09T11:46:21;18.30;85.40
51383;DHT22;37475;43.358;1.248;2022-09-09T11:49:02;18.50;85.40
51383;DHT22;37475;43.358;1.248;2022-09-09T11:51:31;18.60;85.70
51383;DHT22;37475;43.358;1.248;2022-09-09T11:56:31;18.60;84.60
51383;DHT22;37475;43.358;1.248;2022-09-09T11:59:03;18.80;84.60
51383;DHT22;37475;43.358;1.248;2022-09-09T12:01:35;19.00;84.60
51383;DHT22;37475;43.358;1.248;2022-09-09T12:06:54;19.20;83.90
51383;DHT22;37475;43.358;1.248;2022-09-09T12:09:45;19.20;83.30
51383;DHT22;37475;43.358;1.248;2022-09-09T12:17:30;19.50;82.30
51383;DHT22;37475;43.358;1.248;2022-09-09T12:20:08;19.60;80.00
51383;DHT22;37475;43.358;1.248;2022-09-09T12:22:55;19.90;79.60
51383;DHT22;37475;43.358;1.248;2022-09-09T12:28:08;20.10;77.40
51383;DHT22;37475;43.358;1.248;2022-09-09T12:30:57;20.40;76.10
51383;DHT22;37475;43.358;1.248;2022-09-09T12:33:34;20.80;75.50
51383;DHT22;37475;43.358;1.248;2022-09-09T12:36:03;20.70;74.30
51383;DHT22;37475;43.358;1.248;2022-09-09T12:38:37;20.60;72.60
51383;DHT22;37475;43.358;1.248;2022-09-09T12:41:05;20.50;73.10
51383;DHT22;37475;43.358;1.248;2022-09-09T12:43:31;20.90;73.30
51383;DHT22;37475;43.358;1.248;2022-09-09T12:46:01;21.20;72.90
51383;DHT22;37475;43.358;1.248;2022-09-09T12:48:38;21.30;69.20
51383;DHT22;37475;43.358;1.248;2022-09-09T12:51:17;20.90;68.90
51383;DHT22;37475;43.358;1.248;2022-09-09T12:53:46;20.60;68.50
51383;DHT22;37475;43.358;1.248;2022-09-09T12:56:21;20.80;68.70
51383;DHT22;37475;43.358;1.248;2022-09-09T12:58:50;21.10;68.70
51383;DHT22;37475;43.358;1.248;2022-09-09T13:01:35;21.10;68.80
51383;DHT22;37475;43.358;1.248;2022-09-09T13:04:01;21.10;67.20
51383;DHT22;37475;43.358;1.248;2022-09-09T13:06:29;21.30;68.80
51383;DHT22;37475;43.358;1.248;2022-09-09T13:08:58;21.30;67.40
51383;DHT22;37475;43.358;1.248;2022-09-09T13:14:24;21.40;68.40
51383;DHT22;37475;43.358;1.248;2022-09-09T13:16:59;21.50;67.40
51383;DHT22;37475;43.358;1.248;2022-09-09T13:19:26;21.60;66.30
51383;DHT22;37475;43.358;1.248;2022-09-09T13:22:31;21.60;66.40
51383;DHT22;37475;43.358;1.248;2022-09-09T13:27:40;21.70;65.60
51383;DHT22;37475;43.358;1.248;2022-09-09T13:33:05;22.00;65.20
51383;DHT22;37475;43.358;1.248;2022-09-09T13:35:32;22.00;65.70
51383;DHT22;37475;43.358;1.248;2022-09-09T13:38:05;21.90;65.40
51383;DHT22;37475;43.358;1.248;2022-09-09T13:40:33;21.70;66.40
51383;DHT22;37475;43.358;1.248;2022-09-09T13:42:59;22.10;66.10
51383;DHT22;37475;43.358;1.248;2022-09-09T13:45:26;22.30;64.50
51383;DHT22;37475;43.358;1.248;2022-09-09T13:47:53;22.20;64.10
51383;DHT22;37475;43.358;1.248;2022-09-09T13:50:30;22.00;64.80
51383;DHT22;37475;43.358;1.248;2022-09-09T13:52:58;21.60;66.40
51383;DHT22;37475;43.358;1.248;2022-09-09T13:55:29;21.80;67.10
51383;DHT22;37475;43.358;1.248;2022-09-09T13:58:05;21.70;65.90
51383;DHT22;37475;43.358;1.248;2022-09-09T14:00:33;21.50;67.10
51383;DHT22;37475;43.358;1.248;2022-09-09T14:02:59;21.70;66.80
51383;DHT22;37475;43.358;1.248;2022-09-09T14:05:29;21.70;66.40
51383;DHT22;37475;43.358;1.248;2022-09-09T14:07:56;21.90;64.80
51383;DHT22;37475;43.358;1.248;2022-09-09T14:10:22;22.10;65.00
51383;DHT22;37475;43.358;1.248;2022-09-09T14:12:48;22.40;63.90
51383;DHT22;37475;43.358;1.248;2022-09-09T14:15:14;22.90;62.50
51383;DHT22;37475;43.358;1.248;2022-09-09T14:17:40;24.00;59.80
51383;DHT22;37475;43.358;1.248;2022-09-09T14:20:07;24.00;58.20
51383;DHT22;37475;43.358;1.248;2022-09-09T14:22:35;24.30;57.80
51383;DHT22;37475;43.358;1.248;2022-09-09T14:25:03;23.90;57.60
51383;DHT22;37475;43.358;1.248;2022-09-09T14:27:29;23.50;58.40
51383;DHT22;37475;43.358;1.248;2022-09-09T14:29:55;23.50;59.20
51383;DHT22;37475;43.358;1.248;2022-09-09T14:32:22;23.40;59.60
51383;DHT22;37475;43.358;1.248;2022-09-09T14:34:48;24.10;58.80
51383;DHT22;37475;43.358;1.248;2022-09-09T14:37:17;25.00;55.90
51383;DHT22;37475;43.358;1.248;2022-09-09T14:39:44;25.30;54.10
51383;DHT22;37475;43.358;1.248;2022-09-09T14:42:10;25.00;54.10
51383;DHT22;37475;43.358;1.248;2022-09-09T14:44:37;23.80;56.40
51383;DHT22;37475;43.358;1.248;2022-09-09T14:47:06;23.60;58.10
51383;DHT22;37475;43.358;1.248;2022-09-09T14:49:35;23.50;58.10
51383;DHT22;37475;43.358;1.248;2022-09-09T14:52:03;23.60;57.60
51383;DHT22;37475;43.358;1.248;2022-09-09T14:54:30;24.20;56.60
51383;DHT22;37475;43.358;1.248;2022-09-09T14:56:57;24.70;54.90
51383;DHT22;37475;43.358;1.248;2022-09-09T14:59:24;24.30;56.10
51383;DHT22;37475;43.358;1.248;2022-09-09T15:01:50;24.10;56.40
51383;DHT22;37475;43.358;1.248;2022-09-09T15:04:16;24.80;55.80
51383;DHT22;37475;43.358;1.248;2022-09-09T15:06:42;25.10;53.70
51383;DHT22;37475;43.358;1.248;2022-09-09T15:09:10;25.10;53.50
51383;DHT22;37475;43.358;1.248;2022-09-09T15:11:37;25.50;53.30
51383;DHT22;37475;43.358;1.248;2022-09-09T15:14:04;25.20;52.50
51383;DHT22;37475;43.358;1.248;2022-09-09T15:16:31;25.60;52.10
51383;DHT22;37475;43.358;1.248;2022-09-09T15:19:01;25.70;51.70
51383;DHT22;37475;43.358;1.248;2022-09-09T15:21:30;25.70;51.60
51383;DHT22;37475;43.358;1.248;2022-09-09T15:23:58;25.30;52.80
51383;DHT22;37475;43.358;1.248;2022-09-09T15:26:25;25.00;53.10
51383;DHT22;37475;43.358;1.248;2022-09-09T15:28:51;24.80;53.70
51383;DHT22;37475;43.358;1.248;2022-09-09T15:33:49;24.40;54.70
51383;DHT22;37475;43.358;1.248;2022-09-09T15:36:17;23.80;56.20
51383;DHT22;37475;43.358;1.248;2022-09-09T15:38:45;23.90;56.00
51383;DHT22;37475;43.358;1.248;2022-09-09T15:41:11;23.90;56.40
51383;DHT22;37475;43.358;1.248;2022-09-09T15:43:38;23.80;57.10
51383;DHT22;37475;43.358;1.248;2022-09-09T15:46:24;23.70;57.20
51383;DHT22;37475;43.358;1.248;2022-09-09T15:48:55;23.70;56.60
51383;DHT22;37475;43.358;1.248;2022-09-09T15:51:24;23.70;57.10
51383;DHT22;37475;43.358;1.248;2022-09-09T15:53:58;23.50;57.40
51383;DHT22;37475;43.358;1.248;2022-09-09T15:56:28;23.60;57.60
51383;DHT22;37475;43.358;1.248;2022-09-09T15:58:59;23.50;58.00
51383;DHT22;37475;43.358;1.248;2022-09-09T16:01:27;23.60;57.50
51383;DHT22;37475;43.358;1.248;2022-09-09T16:03:53;24.10;56.20
51383;DHT22;37475;43.358;1.248;2022-09-09T16:06:23;24.60;54.70
51383;DHT22;37475;43.358;1.248;2022-09-09T16:08:52;24.50;55.20
51383;DHT22;37475;43.358;1.248;2022-09-09T16:11:23;24.10;57.50
51383;DHT22;37475;43.358;1.248;2022-09-09T16:13:52;24.40;56.90
51383;DHT22;37475;43.358;1.248;2022-09-09T16:16:22;25.00;56.00
51383;DHT22;37475;43.358;1.248;2022-09-09T16:18:52;25.20;54.80
51383;DHT22;37475;43.358;1.248;2022-09-09T16:21:27;25.50;54.20
51383;DHT22;37475;43.358;1.248;2022-09-09T16:23:55;25.10;54.80
51383;DHT22;37475;43.358;1.248;2022-09-09T16:26:23;24.70;56.20
51383;DHT22;37475;43.358;1.248;2022-09-09T16:28:49;24.20;57.80
51383;DHT22;37475;43.358;1.248;2022-09-09T16:31:20;23.70;59.40
51383;DHT22;37475;43.358;1.248;2022-09-09T16:33:48;23.60;60.40
51383;DHT22;37475;43.358;1.248;2022-09-09T16:36:22;23.60;60.30
51383;DHT22;37475;43.358;1.248;2022-09-09T16:38:57;23.30;60.90
51383;DHT22;37475;43.358;1.248;2022-09-09T16:41:28;23.90;59.60
51383;DHT22;37475;43.358;1.248;2022-09-09T16:43:55;24.60;57.40
51383;DHT22;37475;43.358;1.248;2022-09-09T16:46:23;24.80;57.20
51383;DHT22;37475;43.358;1.248;2022-09-09T16:48:50;24.80;57.00
51383;DHT22;37475;43.358;1.248;2022-09-09T16:51:22;24.50;57.30
51383;DHT22;37475;43.358;1.248;2022-09-09T16:53:57;24.60;57.30
51383;DHT22;37475;43.358;1.248;2022-09-09T16:56:26;24.50;57.10
51383;DHT22;37475;43.358;1.248;2022-09-09T16:58:58;24.10;58.50
51383;DHT22;37475;43.358;1.248;2022-09-09T17:01:28;23.50;60.00
51383;DHT22;37475;43.358;1.248;2022-09-09T17:03:58;23.10;61.00
51383;DHT22;37475;43.358;1.248;2022-09-09T17:06:29;23.80;59.80
51383;DHT22;37475;43.358;1.248;2022-09-09T17:09:01;23.80;59.40
51383;DHT22;37475;43.358;1.248;2022-09-09T17:11:29;23.60;59.90
51383;DHT22;37475;43.358;1.248;2022-09-09T17:13:56;23.30;61.00
51383;DHT22;37475;43.358;1.248;2022-09-09T17:16:25;23.00;62.00
51383;DHT22;37475;43.358;1.248;2022-09-09T17:18:56;22.80;62.90
51383;DHT22;37475;43.358;1.248;2022-09-09T17:21:25;23.10;62.50
51383;DHT22;37475;43.358;1.248;2022-09-09T17:23:53;23.60;60.20
51383;DHT22;37475;43.358;1.248;2022-09-09T17:26:22;23.40;60.60
51383;DHT22;37475;43.358;1.248;2022-09-09T17:28:49;23.30;61.40
51383;DHT22;37475;43.358;1.248;2022-09-09T17:31:17;23.80;60.90
51383;DHT22;37475;43.358;1.248;2022-09-09T17:33:47;24.10;58.70
51383;DHT22;37475;43.358;1.248;2022-09-09T17:36:19;24.20;58.50
51383;DHT22;37475;43.358;1.248;2022-09-09T17:38:48;23.90;59.60
51383;DHT22;37475;43.358;1.248;2022-09-09T17:41:23;23.90;59.70
51383;DHT22;37475;43.358;1.248;2022-09-09T17:43:50;23.60;60.50
51383;DHT22;37475;43.358;1.248;2022-09-09T17:46:19;23.50;60.70
51383;DHT22;37475;43.358;1.248;2022-09-09T17:48:47;23.40;61.10
51383;DHT22;37475;43.358;1.248;2022-09-09T17:51:17;23.40;61.20
51383;DHT22;37475;43.358;1.248;2022-09-09T17:53:48;23.40;61.50
51383;DHT22;37475;43.358;1.248;2022-09-09T17:56:16;23.40;61.70
51383;DHT22;37475;43.358;1.248;2022-09-09T17:58:45;22.80;63.30
51383;DHT22;37475;43.358;1.248;2022-09-09T18:01:15;22.50;64.40
51383;DHT22;37475;43.358;1.248;2022-09-09T18:03:44;22.20;65.50
51383;DHT22;37475;43.358;1.248;2022-09-09T18:06:14;22.20;65.50
51383;DHT22;37475;43.358;1.248;2022-09-09T18:08:48;22.10;65.30
51383;DHT22;37475;43.358;1.248;2022-09-09T18:11:19;22.30;64.90
51383;DHT22;37475;43.358;1.248;2022-09-09T18:13:54;22.10;65.20
51383;DHT22;37475;43.358;1.248;2022-09-09T18:16:30;22.20;65.10
51383;DHT22;37475;43.358;1.248;2022-09-09T18:19:00;22.20;64.20